Time;durP1;ratioP1;P1;durP2;ratioP2;P2;SDS_P1;SDS_P2;PMS_P1;PMS_P2;Temp;Humidity;BMP_temperature;BMP_pressure;BME280_temperature;BME280_humidity;BME280_pressure;Samples;Min_cycle;Max_cycle;Signal;HPM_P1;HPM_P2
2023/05/26 00:01:28;;;;;;;6.75;2.70;;;;;;;;;;5036461;28;20029;-82
2023/05/26 00:03:56;;;;;;;6.90;2.70;;;;;;;;;;5054136;28;20037;-82
2023/05/26 00:06:22;;;;;;;7.30;2.42;;;;;;;;;;5036640;28;20044;-82
2023/05/26 00:08:47;;;;;;;7.55;2.40;;;;;;;;;;5036325;28;20087;-82
2023/05/26 00:11:13;;;;;;;6.65;2.55;;;;;;;;;;5036133;28;20040;-83
2023/05/26 00:13:38;;;;;;;6.32;2.58;;;;;;;;;;5053892;28;20062;-82
2023/05/26 00:16:04;;;;;;;7.88;2.60;;;;;;;;;;5036118;28;20037;-83
2023/05/26 00:18:29;;;;;;;4.80;2.10;;;;;;;;;;5035947;28;20396;-83
2023/05/26 00:20:55;;;;;;;6.25;2.05;;;;;;;;;;5035759;28;20344;-82
2023/05/26 00:23:21;;;;;;;8.60;2.65;;;;;;;;;;5053691;28;20464;-82
2023/05/26 00:25:47;;;;;;;6.00;2.42;;;;;;;;;;5019503;28;20483;-83
2023/05/26 00:28:13;;;;;;;6.15;2.13;;;;;;;;;;5018963;28;20392;-83
2023/05/26 00:30:38;;;;;;;7.90;2.63;;;;;;;;;;5053433;28;20035;-82
2023/05/26 00:33:04;;;;;;;5.10;2.40;;;;;;;;;;5053845;28;20040;-82
2023/05/26 00:35:29;;;;;;;7.32;2.53;;;;;;;;;;5036034;28;20037;-82
2023/05/26 00:37:54;;;;;;;7.22;2.58;;;;;;;;;;5038086;28;20025;-82
2023/05/26 00:40:20;;;;;;;6.65;2.42;;;;;;;;;;5039123;28;20046;-83
2023/05/26 00:42:45;;;;;;;5.93;2.40;;;;;;;;;;5037069;28;20036;-82
2023/05/26 00:45:11;;;;;;;6.57;2.35;;;;;;;;;;5054677;28;20036;-83
2023/05/26 00:47:36;;;;;;;8.80;2.35;;;;;;;;;;5022063;28;20039;-83
2023/05/26 00:50:02;;;;;;;7.18;2.67;;;;;;;;;;5057289;28;20032;-82
2023/05/26 00:52:29;;;;;;;9.77;2.78;;;;;;;;;;5039059;28;20436;-83
2023/05/26 00:54:55;;;;;;;10.70;2.75;;;;;;;;;;5022302;28;20123;-82
2023/05/26 00:57:20;;;;;;;5.55;2.25;;;;;;;;;;5038348;28;20045;-82
2023/05/26 00:59:46;;;;;;;8.60;2.50;;;;;;;;;;5037173;28;20463;-82
2023/05/26 01:02:12;;;;;;;7.65;2.70;;;;;;;;;;5020256;28;20100;-83
2023/05/26 01:04:40;;;;;;;7.75;2.80;;;;;;;;;;5036025;28;20037;-83
2023/05/26 01:07:06;;;;;;;6.47;2.50;;;;;;;;;;5036248;28;20032;-82
2023/05/26 01:09:31;;;;;;;4.75;2.28;;;;;;;;;;5018899;28;20373;-82
2023/05/26 01:12:01;;;;;;;8.35;2.28;;;;;;;;;;5035301;28;20029;-83
2023/05/26 01:14:54;;;;;;;6.03;2.28;;;;;;;;;;5019271;28;20029;-82
2023/05/26 01:17:34;;;;;;;4.78;2.17;;;;;;;;;;5037406;28;20100;-82
2023/05/26 01:20:15;;;;;;;7.68;2.90;;;;;;;;;;5035767;28;20028;-83
2023/05/26 01:22:48;;;;;;;7.20;2.40;;;;;;;;;;5053254;28;20089;-83
2023/05/26 01:25:31;;;;;;;5.53;1.98;;;;;;;;;;5052953;28;20487;-83
2023/05/26 01:28:18;;;;;;;7.07;2.15;;;;;;;;;;5035854;28;20037;-83
2023/05/26 01:30:44;;;;;;;7.88;2.70;;;;;;;;;;5034893;28;20086;-83
2023/05/26 01:33:10;;;;;;;7.18;2.38;;;;;;;;;;5052734;28;20057;-84
2023/05/26 01:35:35;;;;;;;8.48;2.60;;;;;;;;;;5035047;28;20499;-83
2023/05/26 01:38:01;;;;;;;6.60;2.35;;;;;;;;;;5018239;28;20033;-84
2023/05/26 01:40:27;;;;;;;6.63;2.33;;;;;;;;;;5035127;28;20025;-83
2023/05/26 01:43:05;;;;;;;7.20;2.55;;;;;;;;;;5018032;28;20431;-84
2023/05/26 01:45:39;;;;;;;6.72;2.40;;;;;;;;;;5052681;28;20029;-84
2023/05/26 01:48:06;;;;;;;8.48;2.60;;;;;;;;;;5034827;28;20029;-84
2023/05/26 01:50:45;;;;;;;6.82;2.70;;;;;;;;;;5035355;28;20078;-83
2023/05/26 01:53:12;;;;;;;4.82;2.05;;;;;;;;;;5038954;28;20039;-83
2023/05/26 01:55:38;;;;;;;9.05;2.80;;;;;;;;;;5021908;28;20116;-84
2023/05/26 01:58:03;;;;;;;6.38;2.28;;;;;;;;;;5022320;28;20055;-84
2023/05/26 02:00:29;;;;;;;5.22;2.17;;;;;;;;;;5038661;28;20029;-84
2023/05/26 02:02:54;;;;;;;6.18;2.25;;;;;;;;;;5021915;28;20083;-83
2023/05/26 02:05:20;;;;;;;6.43;2.30;;;;;;;;;;5056496;28;20025;-84
2023/05/26 02:07:46;;;;;;;8.95;2.53;;;;;;;;;;5056158;28;20025;-84
2023/05/26 02:10:11;;;;;;;7.80;2.40;;;;;;;;;;5038254;28;20545;-83
2023/05/26 02:12:37;;;;;;;11.23;2.78;;;;;;;;;;5021650;28;20096;-84
2023/05/26 02:15:03;;;;;;;6.22;2.58;;;;;;;;;;5038466;28;20082;-84
2023/05/26 02:17:28;;;;;;;7.55;2.75;;;;;;;;;;5038277;28;20440;-84
2023/05/26 02:19:54;;;;;;;6.75;2.40;;;;;;;;;;5055979;28;20044;-83
2023/05/26 02:22:19;;;;;;;9.35;2.63;;;;;;;;;;5038930;28;20064;-82
2023/05/26 02:24:45;;;;;;;6.05;2.67;;;;;;;;;;5038233;28;20025;-82
2023/05/26 02:27:10;;;;;;;6.60;2.85;;;;;;;;;;5056136;28;20490;-84
2023/05/26 02:29:36;;;;;;;8.73;2.35;;;;;;;;;;5055934;28;20040;-83
2023/05/26 02:32:01;;;;;;;5.47;2.35;;;;;;;;;;5005162;28;20082;-83
2023/05/26 02:34:26;;;;;;;6.07;2.33;;;;;;;;;;5055909;28;20376;-84
2023/05/26 02:36:55;;;;;;;7.13;2.15;;;;;;;;;;5037878;28;20100;-84
2023/05/26 02:39:21;;;;;;;6.10;2.35;;;;;;;;;;5037893;28;20405;-83
2023/05/26 02:41:47;;;;;;;7.95;2.40;;;;;;;;;;5055856;28;20380;-84
2023/05/26 02:44:13;;;;;;;6.93;2.88;;;;;;;;;;5055568;28;20033;-83
2023/05/26 02:46:39;;;;;;;4.35;1.90;;;;;;;;;;5037944;28;20498;-83
2023/05/26 02:49:04;;;;;;;6.53;2.17;;;;;;;;;;5021145;28;20142;-83
2023/05/26 02:51:30;;;;;;;5.60;2.70;;;;;;;;;;5056569;28;20336;-83
2023/05/26 02:53:56;;;;;;;5.85;2.53;;;;;;;;;;5037605;28;20029;-83
2023/05/26 02:56:21;;;;;;;5.43;2.13;;;;;;;;;;5037873;28;20029;-83
2023/05/26 02:58:46;;;;;;;6.57;2.40;;;;;;;;;;5037785;28;20104;-83
2023/05/26 03:01:12;;;;;;;6.43;2.38;;;;;;;;;;5037678;28;20112;-83
2023/05/26 03:03:38;;;;;;;5.30;2.00;;;;;;;;;;5036750;28;20524;-83
2023/05/26 03:06:04;;;;;;;7.70;2.42;;;;;;;;;;5037449;28;20033;-83
2023/05/26 03:08:30;;;;;;;5.35;2.28;;;;;;;;;;5021084;28;20396;-82
2023/05/26 03:10:56;;;;;;;3.65;2.00;;;;;;;;;;5055321;28;20029;-82
2023/05/26 03:13:21;;;;;;;5.28;2.13;;;;;;;;;;5037813;28;20162;-82
2023/05/26 03:15:48;;;;;;;5.80;2.45;;;;;;;;;;5004863;28;20407;-83
2023/05/26 03:18:13;;;;;;;5.85;2.50;;;;;;;;;;5054945;28;20029;-83
2023/05/26 03:20:39;;;;;;;6.28;2.13;;;;;;;;;;5020523;28;20051;-83
2023/05/26 03:23:05;;;;;;;7.57;2.65;;;;;;;;;;5054984;28;20037;-83
2023/05/26 03:25:30;;;;;;;6.65;2.03;;;;;;;;;;5037000;28;20032;-82
2023/05/26 03:27:56;;;;;;;6.05;2.30;;;;;;;;;;5054740;28;20025;-83
2023/05/26 03:30:21;;;;;;;4.72;2.25;;;;;;;;;;5036710;28;20033;-82
2023/05/26 03:32:46;;;;;;;5.38;2.15;;;;;;;;;;5036836;28;20029;-83
2023/05/26 03:35:12;;;;;;;8.93;2.30;;;;;;;;;;5055580;28;20036;-83
2023/05/26 03:37:38;;;;;;;5.63;2.35;;;;;;;;;;5019803;28;20027;-82
2023/05/26 03:40:04;;;;;;;11.27;2.70;;;;;;;;;;5036273;28;20068;-83
2023/05/26 03:42:30;;;;;;;6.60;2.22;;;;;;;;;;5028685;28;20084;-82
2023/05/26 03:44:55;;;;;;;5.70;1.90;;;;;;;;;;5054294;28;20029;-83
2023/05/26 03:47:20;;;;;;;5.85;2.45;;;;;;;;;;5036469;28;20486;-83
2023/05/26 03:49:46;;;;;;;6.25;2.22;;;;;;;;;;5054505;28;20033;-82
2023/05/26 03:52:11;;;;;;;5.38;2.05;;;;;;;;;;5036628;28;20380;-82
2023/05/26 03:54:37;;;;;;;7.53;2.30;;;;;;;;;;5054377;28;20145;-81
2023/05/26 03:57:02;;;;;;;7.10;2.40;;;;;;;;;;5036264;28;20025;-82
2023/05/26 03:59:28;;;;;;;5.63;2.20;;;;;;;;;;5054613;28;20472;-83
2023/05/26 04:01:55;;;;;;;4.32;1.95;;;;;;;;;;5037390;28;20561;-82
2023/05/26 04:04:20;;;;;;;6.38;2.15;;;;;;;;;;5020465;28;20033;-82
2023/05/26 04:06:45;;;;;;;5.68;1.90;;;;;;;;;;5054455;28;20498;-83
2023/05/26 04:09:11;;;;;;;7.95;2.80;;;;;;;;;;5036743;28;20079;-79
2023/05/26 04:11:37;;;;;;;7.18;2.20;;;;;;;;;;5036396;28;20036;-81
2023/05/26 04:14:02;;;;;;;6.88;2.30;;;;;;;;;;5036696;28;20033;-83
2023/05/26 04:16:27;;;;;;;8.10;2.53;;;;;;;;;;5036569;28;20021;-80
2023/05/26 04:18:53;;;;;;;8.93;2.58;;;;;;;;;;5036679;28;20036;-80
2023/05/26 04:21:18;;;;;;;7.13;2.58;;;;;;;;;;5036181;28;20483;-81
2023/05/26 04:23:47;;;;;;;7.82;2.40;;;;;;;;;;5036224;28;20115;-79
2023/05/26 04:26:13;;;;;;;5.07;2.10;;;;;;;;;;5036917;28;20021;-81
2023/05/26 04:28:38;;;;;;;7.10;1.98;;;;;;;;;;5036605;28;20040;-79
2023/05/26 04:31:04;;;;;;;6.05;2.00;;;;;;;;;;5036845;28;20384;-79
2023/05/26 04:33:30;;;;;;;8.60;2.20;;;;;;;;;;5020008;28;20033;-79
2023/05/26 04:35:56;;;;;;;7.43;2.20;;;;;;;;;;5036494;28;20443;-81
2023/05/26 04:38:22;;;;;;;8.07;2.00;;;;;;;;;;5036326;28;20132;-79
2023/05/26 04:40:48;;;;;;;5.43;2.28;;;;;;;;;;5020468;28;20114;-81
2023/05/26 04:43:14;;;;;;;7.63;2.88;;;;;;;;;;5036531;28;20424;-80
2023/05/26 04:45:41;;;;;;;8.98;2.50;;;;;;;;;;5036167;28;20024;-81
2023/05/26 04:48:08;;;;;;;9.40;2.00;;;;;;;;;;5053454;28;20112;-79
2023/05/26 04:50:37;;;;;;;5.88;2.55;;;;;;;;;;5035465;28;20091;-79
2023/05/26 04:53:05;;;;;;;11.52;2.65;;;;;;;;;;5053577;28;20400;-81
2023/05/26 04:55:30;;;;;;;7.45;2.58;;;;;;;;;;5019178;28;20024;-79
2023/05/26 04:57:56;;;;;;;7.53;2.70;;;;;;;;;;5036042;28;20087;-78
2023/05/26 05:00:21;;;;;;;7.75;2.30;;;;;;;;;;5053930;28;20113;-80
2023/05/26 05:02:47;;;;;;;7.72;2.42;;;;;;;;;;5035393;28;20128;-84
2023/05/26 05:05:12;;;;;;;14.25;2.55;;;;;;;;;;5019280;28;20037;-81
2023/05/26 05:07:37;;;;;;;7.13;2.28;;;;;;;;;;5035247;28;20101;-80
2023/05/26 05:10:03;;;;;;;8.00;2.60;;;;;;;;;;5035041;28;20033;-80
2023/05/26 05:12:28;;;;;;;8.85;2.95;;;;;;;;;;5035276;28;20035;-80
2023/05/26 05:14:54;;;;;;;7.30;2.38;;;;;;;;;;5018660;28;20071;-79
2023/05/26 05:17:20;;;;;;;6.38;2.38;;;;;;;;;;5018848;28;20033;-80
2023/05/26 05:19:45;;;;;;;8.82;2.75;;;;;;;;;;5053166;28;20083;-79
2023/05/26 05:22:12;;;;;;;5.63;2.58;;;;;;;;;;5053003;28;20025;-81
2023/05/26 05:24:38;;;;;;;11.55;2.72;;;;;;;;;;5035369;28;20090;-80
2023/05/26 05:27:04;;;;;;;7.43;2.47;;;;;;;;;;5056140;28;20029;-79
2023/05/26 05:29:29;;;;;;;8.70;2.53;;;;;;;;;;5039279;28;20029;-79
2023/05/26 05:31:54;;;;;;;6.68;2.55;;;;;;;;;;5057111;28;20387;-79
2023/05/26 05:34:20;;;;;;;8.25;2.42;;;;;;;;;;5039315;28;20033;-79
2023/05/26 05:36:45;;;;;;;5.50;2.58;;;;;;;;;;5056748;28;20380;-79
2023/05/26 05:39:10;;;;;;;5.95;2.40;;;;;;;;;;5056843;28;20055;-79
2023/05/26 05:41:36;;;;;;;5.97;2.75;;;;;;;;;;5039799;28;20025;-79
2023/05/26 05:44:02;;;;;;;7.40;2.80;;;;;;;;;;5056982;28;20028;-79
2023/05/26 05:46:27;;;;;;;6.50;2.50;;;;;;;;;;5039342;28;20479;-79
2023/05/26 05:48:53;;;;;;;7.55;2.67;;;;;;;;;;5057036;28;20036;-79
2023/05/26 05:51:18;;;;;;;7.80;2.67;;;;;;;;;;5057054;28;20029;-79
2023/05/26 05:53:44;;;;;;;8.98;2.65;;;;;;;;;;5056690;28;20555;-79
2023/05/26 05:56:10;;;;;;;7.43;2.72;;;;;;;;;;5038977;28;20025;-79
2023/05/26 05:58:35;;;;;;;8.65;2.25;;;;;;;;;;5056709;28;20108;-79
2023/05/26 06:01:00;;;;;;;9.73;3.58;;;;;;;;;;5022158;28;20431;-79
2023/05/26 06:03:26;;;;;;;5.88;2.35;;;;;;;;;;5057020;28;20032;-80
2023/05/26 06:05:51;;;;;;;8.68;2.42;;;;;;;;;;5056478;28;20025;-80
2023/05/26 06:08:17;;;;;;;7.07;2.65;;;;;;;;;;5038854;28;20017;-79
2023/05/26 06:10:43;;;;;;;7.45;2.60;;;;;;;;;;5038957;28;20029;-80
2023/05/26 06:13:09;;;;;;;7.82;2.53;;;;;;;;;;5056599;28;20033;-78
2023/05/26 06:15:34;;;;;;;7.35;2.60;;;;;;;;;;5038386;28;20028;-80
2023/05/26 06:18:00;;;;;;;6.47;2.08;;;;;;;;;;5038834;28;20036;-80
2023/05/26 06:20:25;;;;;;;9.48;3.33;;;;;;;;;;5038303;28;20116;-78
2023/05/26 06:22:51;;;;;;;8.65;2.70;;;;;;;;;;5005494;28;20029;-80
2023/05/26 06:25:16;;;;;;;6.18;2.72;;;;;;;;;;5038374;28;20044;-78
2023/05/26 06:27:41;;;;;;;6.68;2.70;;;;;;;;;;5055908;28;20029;-80
2023/05/26 06:30:07;;;;;;;8.15;2.83;;;;;;;;;;5056024;28;20494;-78
2023/05/26 06:32:32;;;;;;;8.55;2.50;;;;;;;;;;5038214;28;20028;-77
2023/05/26 06:34:58;;;;;;;6.97;2.28;;;;;;;;;;5005276;28;20043;-79
2023/05/26 06:37:23;;;;;;;9.88;2.90;;;;;;;;;;5055684;28;20029;-79
2023/05/26 06:39:48;;;;;;;6.90;2.40;;;;;;;;;;5055316;28;20049;-76
2023/05/26 06:42:14;;;;;;;8.18;3.15;;;;;;;;;;5037708;28;20071;-77
2023/05/26 06:44:39;;;;;;;9.35;2.90;;;;;;;;;;5037699;28;20072;-77
2023/05/26 06:47:05;;;;;;;7.18;2.72;;;;;;;;;;5055792;28;20431;-79
2023/05/26 06:49:30;;;;;;;7.07;2.60;;;;;;;;;;5037643;28;20037;-77
2023/05/26 06:51:56;;;;;;;8.55;2.80;;;;;;;;;;5055530;28;20497;-79
2023/05/26 06:54:21;;;;;;;9.73;2.67;;;;;;;;;;5037927;28;20028;-79
2023/05/26 06:56:46;;;;;;;6.93;2.25;;;;;;;;;;5037567;28;20029;-79
2023/05/26 06:59:12;;;;;;;6.72;2.60;;;;;;;;;;5021274;28;20464;-79
2023/05/26 07:01:37;;;;;;;11.82;2.50;;;;;;;;;;5055663;28;20025;-80
2023/05/26 07:04:03;;;;;;;7.93;2.70;;;;;;;;;;5037136;28;20041;-79
2023/05/26 07:06:28;;;;;;;6.30;2.65;;;;;;;;;;5037177;28;20025;-79
2023/05/26 07:08:54;;;;;;;10.40;3.00;;;;;;;;;;5037773;28;20024;-79
2023/05/26 07:11:19;;;;;;;6.88;2.22;;;;;;;;;;5037281;28;20036;-79
2023/05/26 07:13:45;;;;;;;9.43;3.42;;;;;;;;;;5037330;28;20028;-79
2023/05/26 07:16:10;;;;;;;9.43;2.80;;;;;;;;;;5055145;28;20383;-76
2023/05/26 07:18:36;;;;;;;11.57;2.85;;;;;;;;;;5055277;28;20087;-80
2023/05/26 07:21:01;;;;;;;9.93;3.13;;;;;;;;;;5037557;28;20450;-83
2023/05/26 07:23:26;;;;;;;21.10;5.88;;;;;;;;;;5037168;28;20442;-81
2023/05/26 07:25:52;;;;;;;38.63;7.20;;;;;;;;;;5055264;28;20029;-81
2023/05/26 07:28:17;;;;;;;23.75;5.57;;;;;;;;;;5036308;28;20029;-80
2023/05/26 07:30:43;;;;;;;31.58;5.95;;;;;;;;;;5019783;28;20035;-80
2023/05/26 07:33:08;;;;;;;23.70;5.07;;;;;;;;;;5054073;28;20024;-80
2023/05/26 07:35:33;;;;;;;19.52;4.75;;;;;;;;;;5036306;28;20502;-80
2023/05/26 07:37:59;;;;;;;14.55;4.18;;;;;;;;;;5036330;28;20387;-79
2023/05/26 07:40:24;;;;;;;15.23;4.35;;;;;;;;;;5035915;28;20052;-80
2023/05/26 07:42:50;;;;;;;17.92;3.85;;;;;;;;;;5053920;28;20037;-81
2023/05/26 07:45:15;;;;;;;16.15;4.00;;;;;;;;;;5036103;28;20060;-81
2023/05/26 07:47:41;;;;;;;18.27;4.40;;;;;;;;;;5053664;28;20120;-81
2023/05/26 07:50:07;;;;;;;13.77;3.65;;;;;;;;;;5019107;28;20119;-82
2023/05/26 07:52:32;;;;;;;11.98;3.33;;;;;;;;;;5036967;28;20036;-82
2023/05/26 07:54:58;;;;;;;15.95;3.63;;;;;;;;;;5038212;28;20055;-84
2023/05/26 07:57:23;;;;;;;14.52;4.18;;;;;;;;;;5038422;28;20045;-84
2023/05/26 07:59:49;;;;;;;16.20;3.47;;;;;;;;;;5021967;28;20108;-84
2023/05/26 08:02:14;;;;;;;20.70;3.80;;;;;;;;;;5019394;28;20059;-83
2023/05/26 08:04:40;;;;;;;12.20;3.13;;;;;;;;;;5019580;28;20065;-82
2023/05/26 08:07:06;;;;;;;12.95;3.53;;;;;;;;;;5053522;28;20425;-82
2023/05/26 08:09:31;;;;;;;16.15;3.38;;;;;;;;;;5053553;28;20163;-82
2023/05/26 08:11:57;;;;;;;9.02;3.10;;;;;;;;;;5053400;28;20052;-82
2023/05/26 08:14:23;;;;;;;9.00;3.13;;;;;;;;;;5036011;28;20032;-82
2023/05/26 08:16:48;;;;;;;14.38;3.38;;;;;;;;;;5053456;28;20040;-83
2023/05/26 08:19:14;;;;;;;12.20;3.35;;;;;;;;;;5035709;28;20130;-82
2023/05/26 08:21:39;;;;;;;9.90;3.15;;;;;;;;;;5053383;28;20029;-82
2023/05/26 08:24:05;;;;;;;11.65;3.65;;;;;;;;;;5035608;28;20037;-82
2023/05/26 08:26:30;;;;;;;8.65;2.50;;;;;;;;;;5019272;28;20021;-82
2023/05/26 08:28:56;;;;;;;9.90;2.85;;;;;;;;;;5035450;28;20115;-82
2023/05/26 08:31:21;;;;;;;10.15;3.20;;;;;;;;;;5019196;28;20040;-81
2023/05/26 08:33:47;;;;;;;18.48;3.15;;;;;;;;;;5035390;28;20044;-82
2023/05/26 08:36:12;;;;;;;9.93;2.60;;;;;;;;;;5035435;28;20021;-81
2023/05/26 08:38:38;;;;;;;16.00;3.22;;;;;;;;;;5035275;28;20057;-80
2023/05/26 08:41:05;;;;;;;14.85;4.03;;;;;;;;;;5035276;28;20064;-83
2023/05/26 08:43:57;;;;;;;19.42;4.43;;;;;;;;;;5053180;28;20024;-84
2023/05/26 08:46:23;;;;;;;13.57;3.88;;;;;;;;;;5015223;28;20045;-83
2023/05/26 08:48:50;;;;;;;18.00;3.90;;;;;;;;;;5034986;28;20035;-83
2023/05/26 08:51:15;;;;;;;10.02;3.70;;;;;;;;;;5035179;28;20021;-82
2023/05/26 08:53:41;;;;;;;14.48;3.65;;;;;;;;;;5035282;28;20029;-82
2023/05/26 08:56:08;;;;;;;16.40;3.33;;;;;;;;;;5053232;28;20056;-81
2023/05/26 08:58:34;;;;;;;12.50;3.42;;;;;;;;;;5035559;28;20032;-81
2023/05/26 09:01:02;;;;;;;14.73;2.90;;;;;;;;;;5034413;28;20396;-82
2023/05/26 09:03:29;;;;;;;11.80;3.55;;;;;;;;;;5052979;28;20519;-82
2023/05/26 09:05:54;;;;;;;15.15;3.55;;;;;;;;;;5034823;28;20064;-83
2023/05/26 09:08:20;;;;;;;17.30;2.83;;;;;;;;;;5043983;28;20050;-83
2023/05/26 09:10:45;;;;;;;7.15;2.83;;;;;;;;;;5032645;28;20048;-83
2023/05/26 09:13:17;;;;;;;6.63;2.70;;;;;;;;;;5032645;28;20033;-84
2023/05/26 09:15:42;;;;;;;9.60;2.80;;;;;;;;;;5032696;28;20025;-83
2023/05/26 09:18:13;;;;;;;13.55;3.22;;;;;;;;;;5032613;28;20092;-83
2023/05/26 09:20:43;;;;;;;15.05;3.13;;;;;;;;;;5014914;28;20387;-83
2023/05/26 09:23:09;;;;;;;9.85;3.17;;;;;;;;;;5033010;28;20033;-83
2023/05/26 09:25:36;;;;;;;9.35;2.80;;;;;;;;;;5015674;28;20041;-83
2023/05/26 09:28:04;;;;;;;9.65;3.00;;;;;;;;;;5033253;28;20135;-83
2023/05/26 09:30:37;;;;;;;6.68;2.63;;;;;;;;;;5033160;28;20117;-83
2023/05/26 09:33:07;;;;;;;8.02;2.65;;;;;;;;;;5033408;28;20469;-83
2023/05/26 09:35:46;;;;;;;12.20;3.20;;;;;;;;;;5015662;28;20042;-83
2023/05/26 09:38:14;;;;;;;9.38;2.53;;;;;;;;;;5015092;28;20026;-83
2023/05/26 09:40:43;;;;;;;7.72;3.00;;;;;;;;;;4998913;28;20388;-82
2023/05/26 09:43:09;;;;;;;11.32;3.20;;;;;;;;;;4998857;28;20120;-81
2023/05/26 09:45:35;;;;;;;8.30;3.15;;;;;;;;;;4999590;28;20441;-81
2023/05/26 09:48:06;;;;;;;12.77;3.00;;;;;;;;;;5000959;28;20029;-81
2023/05/26 09:50:37;;;;;;;13.70;2.65;;;;;;;;;;5015442;28;20028;-83
2023/05/26 09:53:04;;;;;;;9.25;2.88;;;;;;;;;;5015802;28;20104;-83
2023/05/26 09:55:30;;;;;;;9.15;2.90;;;;;;;;;;5015588;28;20029;-84
2023/05/26 09:58:05;;;;;;;10.75;3.00;;;;;;;;;;4998909;28;20081;-84
2023/05/26 10:00:31;;;;;;;10.27;3.38;;;;;;;;;;5015293;28;20022;-84
2023/05/26 10:02:57;;;;;;;11.15;3.13;;;;;;;;;;5015317;28;20025;-83
2023/05/26 10:05:23;;;;;;;5.95;2.35;;;;;;;;;;5015310;28;20029;-84
2023/05/26 10:07:49;;;;;;;14.50;3.30;;;;;;;;;;5014949;28;20037;-84
2023/05/26 10:10:16;;;;;;;9.15;2.92;;;;;;;;;;4998737;28;20392;-83
2023/05/26 10:12:42;;;;;;;9.68;2.60;;;;;;;;;;5001052;28;20038;-82
2023/05/26 10:15:09;;;;;;;8.60;2.42;;;;;;;;;;5018831;28;20021;-81
2023/05/26 10:17:34;;;;;;;10.93;3.00;;;;;;;;;;5018822;28;20132;-82
2023/05/26 10:20:00;;;;;;;15.25;3.10;;;;;;;;;;5018708;28;20025;-82
2023/05/26 10:22:35;;;;;;;12.15;3.28;;;;;;;;;;5018713;28;20033;-81
2023/05/26 10:25:03;;;;;;;8.32;2.33;;;;;;;;;;5036271;28;20495;-81
2023/05/26 10:27:38;;;;;;;9.65;2.72;;;;;;;;;;5019449;28;20037;-81
2023/05/26 10:30:11;;;;;;;11.05;2.92;;;;;;;;;;5019785;28;20103;-82
2023/05/26 10:32:56;;;;;;;;;;;;;;;;;;5003345;28;20132;-81
2023/05/26 10:35:32;;;;;;;13.18;2.60;;;;;;;;;;5019058;28;19924;-81
2023/05/26 10:38:03;;;;;;;9.00;2.97;;;;;;;;;;5018137;28;20026;-80
2023/05/26 10:40:40;;;;;;;6.97;2.67;;;;;;;;;;5035825;28;20045;-80
2023/05/26 10:43:27;;;;;;;12.95;2.88;;;;;;;;;;5001862;28;20483;-80
2023/05/26 10:46:03;;;;;;;11.00;3.05;;;;;;;;;;5001599;28;20036;-81
2023/05/26 10:48:42;;;;;;;9.18;3.47;;;;;;;;;;5036175;28;20032;-80
2023/05/26 10:51:16;;;;;;;9.80;2.90;;;;;;;;;;5018094;28;20543;-81
2023/05/26 10:53:45;;;;;;;10.35;3.25;;;;;;;;;;5018092;28;20108;-81
2023/05/26 10:56:13;;;;;;;6.95;2.90;;;;;;;;;;5035557;28;20029;-81
2023/05/26 10:58:45;;;;;;;7.63;3.15;;;;;;;;;;5035637;28;20021;-81
2023/05/26 11:01:15;;;;;;;7.07;3.00;;;;;;;;;;5018071;28;20410;-82
2023/05/26 11:03:49;;;;;;;9.23;2.95;;;;;;;;;;5001580;28;20290;-81
2023/05/26 11:06:16;;;;;;;6.85;2.85;;;;;;;;;;5018442;28;20075;-81
2023/05/26 11:08:49;;;;;;;8.07;2.60;;;;;;;;;;5018121;28;20084;-82
2023/05/26 11:11:28;;;;;;;10.82;3.28;;;;;;;;;;5035509;28;20052;-81
2023/05/26 11:14:03;;;;;;;7.97;2.75;;;;;;;;;;5035680;28;20033;-81
2023/05/26 11:16:33;;;;;;;10.15;2.83;;;;;;;;;;5017936;28;20492;-82
2023/05/26 11:19:05;;;;;;;8.00;2.65;;;;;;;;;;5017725;28;20445;-81
2023/05/26 11:21:33;;;;;;;10.77;2.60;;;;;;;;;;5017429;28;20029;-81
2023/05/26 11:23:59;;;;;;;8.48;3.08;;;;;;;;;;5016689;28;20021;-80
2023/05/26 11:26:27;;;;;;;8.55;3.08;;;;;;;;;;4984592;28;20081;-80
2023/05/26 11:28:53;;;;;;;6.07;2.63;;;;;;;;;;4997412;28;20036;-80
2023/05/26 11:31:20;;;;;;;5.43;2.58;;;;;;;;;;4997237;28;20396;-80
2023/05/26 11:33:47;;;;;;;7.85;2.97;;;;;;;;;;4997411;28;20100;-80
2023/05/26 11:36:15;;;;;;;8.18;3.25;;;;;;;;;;5014614;28;20045;-80
2023/05/26 11:38:42;;;;;;;9.65;3.67;;;;;;;;;;4996895;28;20068;-79
2023/05/26 11:41:10;;;;;;;7.13;2.67;;;;;;;;;;5014573;28;20034;-80
2023/05/26 11:43:36;;;;;;;9.25;2.90;;;;;;;;;;4996999;28;20033;-80
2023/05/26 11:46:05;;;;;;;8.70;3.40;;;;;;;;;;4996931;28;20034;-80
2023/05/26 11:48:36;;;;;;;10.02;2.72;;;;;;;;;;5014530;28;20029;-80
2023/05/26 11:51:22;;;;;;;10.23;2.80;;;;;;;;;;4996886;28;20487;-80
2023/05/26 11:53:53;;;;;;;11.50;3.20;;;;;;;;;;5013750;28;20052;-80
2023/05/26 11:56:18;;;;;;;6.78;2.33;;;;;;;;;;4994890;28;20073;-81
2023/05/26 11:58:49;;;;;;;10.15;2.85;;;;;;;;;;5014249;28;20030;-81
2023/05/26 12:01:15;;;;;;;8.32;2.83;;;;;;;;;;4980328;28;20072;-80
2023/05/26 12:03:44;;;;;;;6.50;2.35;;;;;;;;;;4996532;28;20030;-80
2023/05/26 12:06:16;;;;;;;6.22;2.40;;;;;;;;;;4980419;28;20173;-80
2023/05/26 12:08:53;;;;;;;8.45;2.55;;;;;;;;;;4996484;28;20026;-80
2023/05/26 12:11:41;;;;;;;7.32;2.53;;;;;;;;;;5014038;28;20033;-80
2023/05/26 12:14:14;;;;;;;6.25;2.13;;;;;;;;;;4996736;28;20061;-80
2023/05/26 12:16:45;;;;;;;4.80;1.97;;;;;;;;;;4996221;28;20033;-80
2023/05/26 12:19:23;;;;;;;6.95;2.30;;;;;;;;;;5013826;28;20153;-80
2023/05/26 12:21:56;;;;;;;6.55;2.40;;;;;;;;;;4980758;28;20030;-80
2023/05/26 12:24:34;;;;;;;7.88;2.47;;;;;;;;;;5014595;28;20066;-81
2023/05/26 12:27:10;;;;;;;6.93;2.03;;;;;;;;;;5011976;28;20030;-80
2023/05/26 12:29:37;;;;;;;4.07;2.00;;;;;;;;;;4996118;28;20029;-80
2023/05/26 12:32:05;;;;;;;4.72;1.98;;;;;;;;;;4996041;28;20537;-80
2023/05/26 12:34:30;;;;;;;6.55;2.00;;;;;;;;;;4996447;28;20034;-79
2023/05/26 12:36:55;;;;;;;8.13;2.28;;;;;;;;;;5013782;28;20365;-80
2023/05/26 12:39:21;;;;;;;6.20;2.42;;;;;;;;;;4995994;28;20167;-81
2023/05/26 12:41:47;;;;;;;6.40;2.60;;;;;;;;;;5013483;28;20540;-80
2023/05/26 12:44:15;;;;;;;7.53;2.22;;;;;;;;;;4995832;28;20037;-81
2023/05/26 12:46:42;;;;;;;6.22;2.30;;;;;;;;;;4995817;28;20017;-80
2023/05/26 12:49:09;;;;;;;7.70;2.22;;;;;;;;;;4995630;28;20065;-80
2023/05/26 12:51:37;;;;;;;9.13;2.10;;;;;;;;;;5013392;28;20028;-81
2023/05/26 12:54:02;;;;;;;8.13;2.25;;;;;;;;;;5013231;28;20041;-80
2023/05/26 12:56:28;;;;;;;12.75;2.83;;;;;;;;;;5013209;28;20033;-80
2023/05/26 12:58:53;;;;;;;6.20;2.28;;;;;;;;;;4995715;28;20134;-80
2023/05/26 13:01:19;;;;;;;6.47;2.65;;;;;;;;;;5013207;28;20034;-80
2023/05/26 13:03:46;;;;;;;6.53;1.85;;;;;;;;;;5013203;28;20049;-80
2023/05/26 13:06:12;;;;;;;6.88;2.10;;;;;;;;;;4995844;28;20026;-81
2023/05/26 13:08:38;;;;;;;7.15;1.90;;;;;;;;;;4995540;28;20125;-81
2023/05/26 13:11:04;;;;;;;7.93;2.20;;;;;;;;;;4995580;28;20473;-81
2023/05/26 13:13:30;;;;;;;6.72;2.10;;;;;;;;;;4995490;28;20034;-81
2023/05/26 13:15:56;;;;;;;4.90;1.92;;;;;;;;;;4995546;28;20029;-81
2023/05/26 13:18:21;;;;;;;6.88;2.20;;;;;;;;;;5013008;28;20157;-81
2023/05/26 13:20:46;;;;;;;9.52;2.10;;;;;;;;;;4963054;28;20096;-81
2023/05/26 13:23:12;;;;;;;4.47;2.13;;;;;;;;;;4977677;28;20030;-80
2023/05/26 13:25:38;;;;;;;4.13;1.88;;;;;;;;;;4995310;28;20026;-80
2023/05/26 13:28:03;;;;;;;7.63;2.10;;;;;;;;;;4995460;28;20368;-81
2023/05/26 13:30:29;;;;;;;11.77;2.22;;;;;;;;;;4995326;28;20029;-81
2023/05/26 13:32:55;;;;;;;4.20;2.08;;;;;;;;;;4995513;28;20588;-80
2023/05/26 13:35:21;;;;;;;5.03;2.17;;;;;;;;;;4995448;28;20037;-80
2023/05/26 13:37:47;;;;;;;4.60;2.03;;;;;;;;;;4995589;28;20022;-80
2023/05/26 13:40:12;;;;;;;6.65;2.22;;;;;;;;;;4995777;28;20050;-80
2023/05/26 13:42:38;;;;;;;5.60;2.28;;;;;;;;;;4997216;28;20031;-80
2023/05/26 13:45:06;;;;;;;6.50;1.92;;;;;;;;;;4995687;28;20034;-81
2023/05/26 13:47:32;;;;;;;5.93;2.28;;;;;;;;;;4981422;28;20101;-81
2023/05/26 13:49:58;;;;;;;8.27;2.25;;;;;;;;;;4999156;28;20573;-81
2023/05/26 13:52:24;;;;;;;4.60;1.95;;;;;;;;;;4964959;28;20210;-82
2023/05/26 13:54:49;;;;;;;5.65;1.90;;;;;;;;;;4999095;28;20026;-82
2023/05/26 13:57:15;;;;;;;8.57;2.10;;;;;;;;;;4982741;28;20108;-82
2023/05/26 13:59:40;;;;;;;4.35;2.00;;;;;;;;;;5016573;28;20500;-81
2023/05/26 14:02:06;;;;;;;4.32;1.83;;;;;;;;;;4982591;28;20029;-82
2023/05/26 14:04:31;;;;;;;6.45;2.25;;;;;;;;;;4999016;28;20038;-82
2023/05/26 14:06:57;;;;;;;4.22;1.90;;;;;;;;;;4998837;28;20158;-82
2023/05/26 14:09:22;;;;;;;8.75;2.58;;;;;;;;;;4999091;28;20049;-82
2023/05/26 14:11:47;;;;;;;6.45;2.30;;;;;;;;;;4998835;28;20025;-82
2023/05/26 14:14:14;;;;;;;8.18;1.98;;;;;;;;;;5016141;28;20158;-82
2023/05/26 14:16:39;;;;;;;6.03;2.22;;;;;;;;;;5016248;28;20388;-82
2023/05/26 14:19:05;;;;;;;6.03;2.13;;;;;;;;;;4982512;28;20045;-80
2023/05/26 14:21:31;;;;;;;4.07;2.13;;;;;;;;;;4997923;28;20030;-81
2023/05/26 14:23:56;;;;;;;4.80;2.00;;;;;;;;;;4997494;28;20034;-81
2023/05/26 14:26:22;;;;;;;5.25;2.00;;;;;;;;;;5015953;28;20085;-80
2023/05/26 14:28:47;;;;;;;5.18;2.17;;;;;;;;;;4982436;28;20034;-81
2023/05/26 14:31:13;;;;;;;7.35;2.35;;;;;;;;;;5015929;28;20029;-81
2023/05/26 14:33:40;;;;;;;17.02;2.35;;;;;;;;;;5015832;28;20540;-81
2023/05/26 14:36:05;;;;;;;7.80;3.17;;;;;;;;;;4998385;28;20034;-80
2023/05/26 14:38:31;;;;;;;7.97;2.42;;;;;;;;;;5015643;28;20117;-81
2023/05/26 14:40:57;;;;;;;5.63;2.25;;;;;;;;;;4998386;28;20030;-81